createdAt,value
2019-04-06T00:00:27.016Z,123.10
2019-04-06T00:01:27.029Z,122.90
2019-04-06T00:02:26.999Z,124.00
2019-04-06T00:03:26.982Z,124.20
2019-04-06T00:04:26.979Z,132.40
2019-04-06T00:05:26.980Z,125.80
2019-04-06T00:06:26.969Z,123.10
2019-04-06T00:07:26.949Z,125.80
2019-04-06T00:08:26.960Z,119.90
2019-04-06T00:09:26.918Z,124.50
2019-04-06T00:10:26.902Z,129.90
2019-04-06T00:11:26.922Z,128.50
2019-04-06T00:12:26.902Z,122.10
2019-04-06T00:13:26.887Z,119.30
2019-04-06T00:14:26.870Z,119.60
2019-04-06T00:15:26.851Z,124.80
2019-04-06T00:16:26.866Z,119.20
2019-04-06T00:17:26.834Z,124.90
2019-04-06T00:18:26.816Z,123.70
2019-04-06T00:19:26.806Z,121.60
2019-04-06T00:20:26.798Z,124.00
2019-04-06T00:21:26.814Z,121.60
2019-04-06T00:22:26.774Z,123.60
2019-04-06T00:23:26.767Z,124.40
2019-04-06T00:24:26.745Z,117.50
2019-04-06T00:25:26.752Z,129.30
2019-04-06T00:26:26.755Z,123.00
2019-04-06T00:27:26.734Z,130.00
2019-04-06T00:28:26.719Z,132.00
2019-04-06T00:29:26.734Z,123.20
2019-04-06T00:30:26.681Z,126.70
2019-04-06T00:31:26.688Z,132.30
2019-04-06T00:32:26.684Z,121.20
2019-04-06T00:33:26.657Z,125.00
2019-04-06T00:34:26.649Z,125.60
2019-04-06T00:35:26.648Z,129.20
2019-04-06T00:36:26.625Z,126.50
2019-04-06T00:37:26.626Z,128.90
2019-04-06T00:38:26.613Z,124.40
2019-04-06T00:39:26.586Z,122.70
2019-04-06T00:40:26.581Z,122.30
2019-04-06T00:41:26.573Z,122.10
2019-04-06T00:42:26.591Z,111.80
2019-04-06T00:43:26.554Z,115.70
2019-04-06T00:44:26.545Z,120.00
2019-04-06T00:45:26.522Z,116.00
2019-04-06T00:46:26.522Z,117.30
2019-04-06T00:47:26.518Z,112.70
2019-04-06T00:48:26.519Z,118.00
2019-04-06T00:49:26.490Z,115.00
2019-04-06T00:50:26.478Z,113.70
2019-04-06T00:51:26.476Z,114.60
2019-04-06T00:52:26.473Z,114.10
2019-04-06T00:53:26.439Z,113.90
2019-04-06T00:54:26.428Z,108.20
2019-04-06T00:55:26.414Z,121.10
2019-04-06T00:56:26.407Z,113.80
2019-04-06T00:57:26.422Z,113.70
2019-04-06T00:58:26.397Z,107.80
2019-04-06T00:59:26.384Z,113.00
2019-04-06T01:00:26.361Z,110.20
2019-04-06T01:01:26.359Z,106.30
2019-04-06T01:02:26.360Z,109.90
2019-04-06T01:04:46.473Z,101.00
2019-04-06T01:05:47.442Z,114.50
2019-04-06T01:06:47.435Z,110.40
2019-04-06T01:07:47.442Z,111.90
2019-04-06T01:08:47.423Z,108.20
2019-04-06T01:09:48.304Z,117.50
2019-04-06T01:10:47.403Z,116.80
2019-04-06T01:11:47.383Z,112.00
2019-04-06T01:12:47.389Z,115.60
2019-04-06T01:13:47.364Z,111.30
2019-04-06T01:14:47.378Z,113.70
2019-04-06T01:15:47.348Z,114.10
2019-04-06T01:16:47.339Z,118.40
2019-04-06T01:17:47.329Z,109.50
2019-04-06T01:18:47.338Z,118.80
2019-04-06T01:19:47.305Z,113.50
2019-04-06T01:20:47.292Z,110.40
2019-04-06T01:21:47.271Z,109.30
2019-04-06T01:22:47.274Z,104.60
2019-04-06T01:23:47.266Z,106.20
2019-04-06T01:24:47.255Z,106.20
2019-04-06T01:25:47.234Z,109.00
2019-04-06T01:26:47.226Z,110.70
2019-04-06T01:27:47.219Z,110.90
2019-04-06T01:28:47.225Z,108.80
2019-04-06T01:29:47.199Z,105.60
2019-04-06T01:30:47.216Z,101.70
2019-04-06T01:31:47.176Z,103.20
2019-04-06T01:32:47.166Z,107.30
2019-04-06T01:33:47.173Z,103.50
2019-04-06T01:34:47.143Z,98.90
2019-04-06T01:35:47.127Z,99.40
2019-04-06T01:36:47.122Z,101.00
2019-04-06T01:37:47.104Z,93.70
2019-04-06T01:38:47.158Z,102.50
2019-04-06T01:39:47.082Z,98.10
2019-04-06T01:40:47.067Z,99.60
2019-04-06T01:41:47.074Z,95.90
2019-04-06T01:42:47.059Z,95.20
2019-04-06T01:43:47.059Z,93.80
2019-04-06T01:44:47.044Z,102.00
2019-04-06T01:45:47.109Z,99.00
2019-04-06T01:46:47.065Z,94.30
2019-04-06T01:47:47.827Z,95.40
2019-04-06T01:48:47.346Z,92.70
2019-04-06T01:49:47.817Z,94.40
2019-04-06T01:50:47.807Z,94.70
2019-04-06T01:51:47.806Z,97.40
2019-04-06T01:52:47.797Z,100.50
2019-04-06T01:53:46.998Z,95.10
2019-04-06T01:54:46.997Z,101.40
2019-04-06T01:55:46.952Z,95.10
2019-04-06T01:56:46.894Z,97.50
2019-04-06T01:57:46.888Z,100.30
2019-04-06T01:58:46.896Z,97.10
2019-04-06T01:59:46.873Z,98.20
2019-04-06T02:00:46.860Z,97.20
2019-04-06T02:01:46.850Z,93.70
2019-04-06T02:02:46.828Z,94.10
2019-04-06T02:03:46.886Z,91.70
2019-04-06T02:04:46.833Z,97.10
2019-04-06T02:05:46.815Z,95.60
2019-04-06T02:06:46.792Z,93.20
2019-04-06T02:07:46.781Z,97.20
2019-04-06T02:08:46.829Z,94.90
2019-04-06T02:09:46.866Z,94.90
2019-04-06T02:10:46.740Z,93.90
2019-04-06T02:11:46.737Z,93.50
2019-04-06T02:12:46.752Z,98.80
2019-04-06T02:13:46.708Z,102.30
2019-04-06T02:14:46.713Z,94.90
2019-04-06T02:15:46.720Z,106.80
2019-04-06T02:16:46.688Z,100.70
2019-04-06T02:17:46.660Z,97.80
2019-04-06T02:18:46.662Z,101.60
2019-04-06T02:19:46.659Z,97.50
2019-04-06T02:20:46.638Z,100.30
2019-04-06T02:21:46.642Z,101.60
2019-04-06T02:22:46.618Z,101.20
2019-04-06T02:23:46.645Z,95.70
2019-04-06T02:24:46.612Z,105.80
2019-04-06T02:25:46.575Z,102.20
2019-04-06T02:26:46.576Z,100.50
2019-04-06T02:27:46.559Z,96.90
2019-04-06T02:28:46.544Z,99.00
2019-04-06T02:29:46.642Z,99.70
2019-04-06T02:30:46.546Z,102.40
2019-04-06T02:31:46.548Z,98.50
2019-04-06T02:32:46.508Z,106.20
2019-04-06T02:33:46.497Z,103.70
2019-04-06T02:34:46.478Z,101.40
2019-04-06T02:35:46.498Z,102.20
2019-04-06T02:36:46.454Z,101.70
2019-04-06T02:37:46.610Z,104.30
2019-04-06T02:38:47.406Z,108.30
2019-04-06T02:39:46.425Z,102.50
2019-04-06T02:40:46.518Z,105.50
2019-04-06T02:41:46.403Z,103.10
2019-04-06T02:42:46.393Z,100.30
2019-04-06T02:43:46.393Z,97.80
2019-04-06T02:44:46.383Z,104.70
2019-04-06T02:45:46.373Z,106.20
2019-04-06T02:46:46.360Z,104.80
2019-04-06T02:47:46.338Z,107.40
2019-04-06T02:48:46.334Z,106.30
2019-04-06T02:49:46.322Z,104.30
2019-04-06T02:50:46.340Z,108.20
2019-04-06T02:51:46.301Z,105.30
2019-04-06T02:52:46.296Z,106.80
2019-04-06T02:53:46.660Z,106.90
2019-04-06T02:54:46.272Z,113.40
2019-04-06T02:55:46.267Z,108.20
2019-04-06T02:56:47.868Z,108.20
2019-04-06T02:57:46.233Z,112.30
2019-04-06T02:58:46.215Z,110.20
2019-04-06T02:59:46.207Z,108.00
2019-04-06T03:00:46.495Z,111.50
2019-04-06T03:01:46.210Z,114.50
2019-04-06T03:02:46.177Z,110.90
2019-04-06T03:03:46.173Z,111.60
2019-04-06T03:05:55.349Z,108.60
2019-04-06T03:06:56.362Z,115.70
2019-04-06T03:07:56.321Z,118.60
2019-04-06T03:08:56.316Z,121.20
2019-04-06T03:09:56.365Z,124.00
2019-04-06T03:10:56.301Z,120.10
2019-04-06T03:11:56.313Z,114.80
2019-04-06T03:12:56.284Z,114.80
2019-04-06T03:13:56.491Z,120.70
2019-04-06T03:14:56.259Z,115.80
2019-04-06T03:15:56.360Z,126.20
2019-04-06T03:16:56.250Z,122.70
2019-04-06T03:17:56.227Z,121.20
2019-04-06T03:18:56.209Z,117.80
2019-04-06T03:19:56.207Z,119.90
2019-04-06T03:20:56.285Z,118.10
2019-04-06T03:21:56.197Z,118.40
2019-04-06T03:22:56.175Z,120.30
2019-04-06T03:23:56.211Z,124.30
2019-04-06T03:24:56.145Z,125.20
2019-04-06T03:25:56.177Z,116.90
2019-04-06T03:27:02.278Z,117.10
2019-04-06T03:27:56.215Z,120.30
2019-04-06T03:28:56.113Z,119.30
2019-04-06T03:29:58.142Z,117.00
2019-04-06T03:30:56.088Z,118.00
2019-04-06T03:31:56.087Z,115.80
2019-04-06T03:32:56.045Z,120.50
2019-04-06T03:33:56.348Z,120.20
2019-04-06T03:34:56.037Z,124.20
2019-04-06T03:35:56.030Z,126.30
2019-04-06T03:36:56.032Z,118.10
2019-04-06T03:37:56.137Z,118.60
2019-04-06T03:38:55.987Z,121.70
2019-04-06T03:39:55.989Z,118.40
2019-04-06T03:40:55.972Z,114.80
2019-04-06T03:41:55.987Z,113.40
2019-04-06T03:42:55.952Z,116.50
2019-04-06T03:43:55.937Z,108.60
2019-04-06T03:44:55.971Z,117.60
2019-04-06T03:45:55.920Z,114.50
2019-04-06T03:46:55.913Z,117.50
2019-04-06T03:47:55.961Z,119.20
2019-04-06T03:48:55.878Z,114.10
2019-04-06T03:49:55.894Z,115.50
2019-04-06T03:50:55.869Z,116.90
2019-04-06T03:51:55.853Z,116.30
2019-04-06T03:52:55.848Z,117.00
2019-04-06T03:53:55.829Z,118.20
2019-04-06T03:54:55.824Z,114.40
2019-04-06T03:55:55.854Z,113.40
2019-04-06T03:56:55.794Z,123.70
2019-04-06T03:57:55.801Z,122.00
2019-04-06T03:58:55.761Z,114.80
2019-04-06T03:59:55.762Z,120.40
2019-04-06T04:00:55.757Z,121.10
2019-04-06T04:01:55.742Z,126.00
2019-04-06T04:02:56.632Z,118.80
2019-04-06T04:03:55.713Z,123.50
2019-04-06T04:04:55.697Z,124.00
2019-04-06T04:05:55.701Z,128.70
2019-04-06T04:06:55.842Z,133.30
2019-04-06T04:07:55.688Z,131.60
2019-04-06T04:08:55.672Z,133.60
2019-04-06T04:09:55.642Z,125.50
2019-04-06T04:10:55.626Z,124.50
2019-04-06T04:11:55.619Z,126.60
2019-04-06T04:12:55.641Z,129.50
2019-04-06T04:13:55.596Z,137.80
2019-04-06T04:14:55.617Z,136.00
2019-04-06T04:15:57.122Z,131.00
2019-04-06T04:16:55.561Z,133.20
2019-04-06T04:17:55.581Z,135.30
2019-04-06T04:18:55.699Z,133.70
2019-04-06T04:19:55.544Z,136.90
2019-04-06T04:20:55.521Z,139.70
2019-04-06T04:21:55.511Z,134.20
2019-04-06T04:22:55.520Z,137.00
2019-04-06T04:23:55.489Z,135.80
2019-04-06T04:24:55.497Z,136.50
2019-04-06T04:25:55.492Z,143.10
2019-04-06T04:26:55.479Z,148.80
2019-04-06T04:27:55.473Z,142.20
2019-04-06T04:28:55.442Z,144.90
2019-04-06T04:29:55.491Z,141.90
2019-04-06T04:30:55.461Z,143.10
2019-04-06T04:31:55.420Z,141.90
2019-04-06T04:32:55.411Z,143.70
2019-04-06T04:33:55.453Z,139.20
2019-04-06T04:34:55.376Z,147.70
2019-04-06T04:35:55.366Z,152.90
2019-04-06T04:36:55.489Z,147.30
2019-04-06T04:37:55.337Z,146.70
2019-04-06T04:38:55.360Z,154.10
2019-04-06T04:39:55.337Z,145.30
2019-04-06T04:40:55.517Z,153.70
2019-04-06T04:41:55.313Z,149.90
2019-04-06T04:42:55.278Z,154.00
2019-04-06T04:43:55.288Z,154.30
2019-04-06T04:44:55.278Z,149.30
2019-04-06T04:45:55.431Z,161.10
2019-04-06T04:46:55.242Z,157.60
2019-04-06T04:47:55.223Z,159.50
2019-04-06T04:48:55.259Z,160.50
2019-04-06T04:49:55.211Z,167.90
2019-04-06T04:50:55.191Z,169.20
2019-04-06T04:51:55.270Z,167.50
2019-04-06T04:52:55.253Z,169.80
2019-04-06T04:53:55.180Z,166.50
2019-04-06T04:54:55.150Z,167.20
2019-04-06T04:55:55.143Z,177.70
2019-04-06T04:56:55.150Z,176.00
2019-04-06T04:57:55.110Z,172.70
2019-04-06T04:58:55.113Z,170.40
2019-04-06T04:59:55.091Z,169.00
2019-04-06T05:00:55.152Z,164.40
2019-04-06T05:01:55.074Z,169.10
2019-04-06T05:02:55.070Z,170.50
2019-04-06T05:03:55.078Z,173.60
2019-04-06T05:04:55.039Z,169.60
2019-04-06T05:07:04.520Z,158.60
2019-04-06T05:08:05.511Z,162.80
2019-04-06T05:09:05.515Z,163.80
2019-04-06T05:10:05.716Z,169.90
2019-04-06T05:11:05.472Z,165.10
2019-04-06T05:12:05.458Z,169.30
2019-04-06T05:13:05.642Z,165.50
2019-04-06T05:14:05.707Z,168.30
2019-04-06T05:15:05.486Z,172.80
2019-04-06T05:16:05.414Z,167.10
2019-04-06T05:17:05.493Z,167.20
2019-04-06T05:18:05.404Z,167.20
2019-04-06T05:19:05.407Z,160.80
2019-04-06T05:20:05.369Z,159.90
2019-04-06T05:21:05.357Z,163.90
2019-04-06T05:22:05.361Z,169.30
2019-04-06T05:23:05.505Z,169.80
2019-04-06T05:24:05.362Z,164.50
2019-04-06T05:25:05.583Z,160.70
2019-04-06T05:26:05.406Z,166.00
2019-04-06T05:27:05.296Z,160.00
2019-04-06T05:28:05.307Z,157.40
2019-04-06T05:29:05.268Z,165.90
2019-04-06T05:30:05.407Z,158.30
2019-04-06T05:31:05.247Z,155.20
2019-04-06T05:32:05.247Z,157.00
2019-04-06T05:33:05.266Z,157.40
2019-04-06T05:34:05.219Z,154.10
2019-04-06T05:35:05.230Z,162.00
2019-04-06T05:36:05.205Z,152.80
2019-04-06T05:37:05.191Z,156.10
2019-04-06T05:38:05.182Z,152.50
2019-04-06T05:39:05.228Z,153.50
2019-04-06T05:40:05.391Z,154.50
2019-04-06T05:41:05.214Z,150.80
2019-04-06T05:42:05.132Z,157.00
2019-04-06T05:43:05.149Z,158.00
2019-04-06T05:44:05.160Z,160.60
2019-04-06T05:45:05.127Z,149.40
2019-04-06T05:46:05.107Z,150.20
2019-04-06T05:47:05.084Z,147.60
2019-04-06T05:48:05.062Z,142.70
2019-04-06T05:49:05.087Z,141.80
2019-04-06T05:50:05.275Z,144.90
2019-04-06T05:51:05.035Z,146.40
2019-04-06T05:52:05.055Z,150.70
2019-04-06T05:53:05.015Z,141.30
2019-04-06T05:54:05.008Z,140.40
2019-04-06T05:55:05.013Z,143.90
2019-04-06T05:56:04.991Z,143.90
2019-04-06T05:57:05.115Z,142.70
2019-04-06T05:58:09.776Z,138.40
2019-04-06T05:59:04.958Z,138.90
2019-04-06T06:00:05.004Z,137.80
2019-04-06T06:01:04.933Z,140.40
2019-04-06T06:02:04.918Z,136.40
2019-04-06T06:03:05.133Z,136.30
2019-04-06T06:04:04.903Z,138.70
2019-04-06T06:05:04.887Z,137.70
2019-04-06T06:06:04.974Z,130.40
2019-04-06T06:07:04.879Z,136.20
2019-04-06T06:08:04.842Z,132.60
2019-04-06T06:09:04.847Z,134.00
2019-04-06T06:10:04.846Z,127.80
2019-04-06T06:11:05.065Z,128.00
2019-04-06T06:12:04.884Z,131.70
2019-04-06T06:13:04.785Z,126.30
2019-04-06T06:14:04.799Z,121.80
2019-04-06T06:15:04.767Z,123.90
2019-04-06T06:16:04.884Z,126.20
2019-04-06T06:17:04.765Z,127.90
2019-04-06T06:18:04.736Z,121.10
2019-04-06T06:19:04.735Z,123.20
2019-04-06T06:20:04.737Z,127.50
2019-04-06T06:21:04.729Z,121.80
2019-04-06T06:22:04.719Z,125.90
2019-04-06T06:23:04.706Z,127.40
2019-04-06T06:24:04.670Z,118.10
2019-04-06T06:25:04.965Z,113.70
2019-04-06T06:26:04.685Z,113.50
2019-04-06T06:27:04.660Z,120.40
2019-04-06T06:28:13.806Z,115.70
2019-04-06T06:29:04.667Z,112.10
2019-04-06T06:30:04.644Z,119.10
2019-04-06T06:31:04.606Z,111.60
2019-04-06T06:32:04.575Z,111.40
2019-04-06T06:33:04.596Z,114.00
2019-04-06T06:34:04.557Z,114.40
2019-04-06T06:35:04.588Z,108.10
2019-04-06T06:36:04.573Z,115.90
2019-04-06T06:37:04.531Z,114.60
2019-04-06T06:38:04.520Z,114.20
2019-04-06T06:39:04.512Z,111.70
2019-04-06T06:40:04.499Z,114.70
2019-04-06T06:41:04.526Z,111.00
2019-04-06T06:42:04.478Z,121.40
2019-04-06T06:43:04.473Z,112.90
2019-04-06T06:44:04.576Z,110.90
2019-04-06T06:45:04.429Z,109.40
2019-04-06T06:46:04.547Z,103.40
2019-04-06T06:47:04.418Z,113.30
2019-04-06T06:48:04.409Z,106.20
2019-04-06T06:49:04.386Z,108.70
2019-04-06T06:50:04.383Z,104.10
2019-04-06T06:51:04.401Z,113.30
2019-04-06T06:52:04.367Z,106.10
2019-04-06T06:53:04.360Z,109.20
2019-04-06T06:54:04.336Z,104.30
2019-04-06T06:55:04.329Z,109.90
2019-04-06T06:56:04.458Z,107.30
2019-04-06T06:57:04.318Z,108.40
2019-04-06T06:58:04.560Z,106.90
2019-04-06T06:59:04.286Z,106.20
2019-04-06T07:00:04.282Z,104.20
2019-04-06T07:01:04.287Z,106.00
2019-04-06T07:02:04.251Z,104.70
2019-04-06T07:03:04.236Z,108.80
2019-04-06T07:04:04.234Z,104.00
2019-04-06T07:05:04.336Z,106.10
2019-04-06T07:06:04.506Z,104.40
2019-04-06T07:08:13.387Z,98.00
2019-04-06T07:09:14.372Z,98.00
2019-04-06T07:10:14.366Z,98.60
2019-04-06T07:11:14.378Z,96.80
2019-04-06T07:12:14.340Z,95.60
2019-04-06T07:13:14.333Z,96.70
2019-04-06T07:14:14.405Z,99.00
2019-04-06T07:15:14.317Z,98.60
2019-04-06T07:16:14.453Z,95.60
2019-04-06T07:17:14.354Z,97.20
2019-04-06T07:18:14.276Z,94.60
2019-04-06T07:19:14.267Z,93.20
2019-04-06T07:20:14.261Z,90.10
2019-04-06T07:21:16.569Z,99.20
2019-04-06T07:22:14.246Z,92.60
2019-04-06T07:23:14.229Z,93.30
2019-04-06T07:24:14.207Z,81.70
2019-04-06T07:25:14.199Z,90.00
2019-04-06T07:26:14.228Z,89.70
2019-04-06T07:27:14.196Z,90.80
2019-04-06T07:28:14.177Z,89.00
2019-04-06T07:29:14.155Z,92.20
2019-04-06T07:30:14.285Z,85.70
2019-04-06T07:31:14.138Z,87.40
2019-04-06T07:32:14.144Z,89.00
2019-04-06T07:33:14.257Z,85.70
2019-04-06T07:34:14.108Z,84.00
2019-04-06T07:35:14.330Z,81.60
2019-04-06T07:36:14.236Z,81.00
2019-04-06T07:37:14.080Z,82.10
2019-04-06T07:38:14.077Z,82.80
2019-04-06T07:39:14.052Z,80.10
2019-04-06T07:40:14.033Z,76.30
2019-04-06T07:41:14.174Z,81.80
2019-04-06T07:42:14.035Z,77.20
2019-04-06T07:43:14.006Z,79.00
2019-04-06T07:44:13.986Z,74.70
2019-04-06T07:45:13.984Z,76.00
2019-04-06T07:46:14.074Z,76.60
2019-04-06T07:47:14.641Z,74.70
2019-04-06T07:48:13.947Z,74.60
2019-04-06T07:49:13.950Z,68.70
2019-04-06T07:50:13.933Z,70.70
2019-04-06T07:51:13.910Z,71.10
2019-04-06T07:52:13.934Z,69.40
2019-04-06T07:53:13.905Z,67.70
2019-04-06T07:54:13.884Z,69.30
2019-04-06T07:55:13.870Z,67.90
2019-04-06T07:56:13.874Z,69.80
2019-04-06T07:57:14.369Z,66.50
2019-04-06T07:58:13.847Z,67.10
2019-04-06T07:59:13.833Z,63.00
2019-04-06T08:00:13.823Z,67.10
2019-04-06T08:01:13.808Z,64.90
2019-04-06T08:02:14.114Z,68.60
2019-04-06T08:03:13.781Z,67.80
2019-04-06T08:04:13.770Z,64.90
2019-04-06T08:05:13.765Z,64.80
2019-04-06T08:06:13.749Z,65.50
2019-04-06T08:07:13.770Z,66.60
2019-04-06T08:08:13.728Z,60.70
2019-04-06T08:09:13.717Z,64.20
2019-04-06T08:10:13.745Z,61.80
2019-04-06T08:11:13.691Z,61.90
2019-04-06T08:12:13.705Z,63.10
2019-04-06T08:13:13.684Z,60.80
2019-04-06T08:14:13.829Z,64.90
2019-04-06T08:15:13.650Z,58.90
2019-04-06T08:16:13.642Z,60.30
2019-04-06T08:17:13.658Z,61.60
2019-04-06T08:18:13.617Z,62.30
2019-04-06T08:19:13.604Z,63.40
2019-04-06T08:20:13.838Z,62.50
2019-04-06T08:21:13.654Z,63.70
2019-04-06T08:22:13.591Z,62.30
2019-04-06T08:23:13.555Z,62.50
2019-04-06T08:24:13.542Z,57.30
2019-04-06T08:25:13.542Z,61.90
2019-04-06T08:26:13.528Z,66.10
2019-04-06T08:27:13.527Z,61.90
2019-04-06T08:28:13.503Z,64.90
2019-04-06T08:29:13.507Z,60.40
2019-04-06T08:30:13.525Z,59.30
2019-04-06T08:31:13.463Z,60.20
2019-04-06T08:32:13.483Z,61.20
2019-04-06T08:33:13.470Z,60.30
2019-04-06T08:34:14.069Z,57.90
2019-04-06T08:35:23.965Z,58.70
2019-04-06T08:36:13.416Z,61.50
2019-04-06T08:37:13.420Z,60.10
2019-04-06T08:38:13.416Z,61.10
2019-04-06T08:39:13.637Z,59.40
2019-04-06T08:40:13.400Z,60.20
2019-04-06T08:41:13.362Z,60.60
2019-04-06T08:42:13.344Z,59.50
2019-04-06T08:43:13.361Z,61.40
2019-04-06T08:44:13.338Z,56.70
2019-04-06T08:45:14.153Z,60.00
2019-04-06T08:46:13.309Z,59.50
2019-04-06T08:47:13.282Z,58.90
2019-04-06T08:48:13.384Z,59.30
2019-04-06T08:49:13.265Z,59.20
2019-04-06T08:50:13.266Z,60.80
2019-04-06T08:51:13.284Z,61.90
2019-04-06T08:52:13.281Z,59.40
2019-04-06T08:53:13.251Z,57.60
2019-04-06T08:54:13.224Z,60.80
2019-04-06T08:55:13.360Z,58.80
2019-04-06T08:56:13.314Z,59.40
2019-04-06T08:57:13.186Z,61.60
2019-04-06T08:58:13.193Z,59.40
2019-04-06T08:59:13.680Z,55.20
2019-04-06T09:00:13.149Z,59.20
2019-04-06T09:01:13.130Z,58.40
2019-04-06T09:02:13.126Z,56.30
2019-04-06T09:03:13.147Z,63.00
2019-04-06T09:04:13.250Z,58.30
2019-04-06T09:05:13.102Z,57.80
2019-04-06T09:06:13.077Z,57.40
2019-04-06T09:07:13.071Z,58.20
2019-04-06T09:09:22.268Z,53.30
2019-04-06T09:10:23.236Z,58.30
2019-04-06T09:11:23.226Z,61.70
2019-04-06T09:12:23.206Z,59.10
2019-04-06T09:13:23.199Z,57.30
2019-04-06T09:14:23.254Z,55.20
2019-04-06T09:15:23.173Z,58.30
2019-04-06T09:16:23.287Z,59.10
2019-04-06T09:17:23.165Z,55.40
2019-04-06T09:18:23.136Z,56.50
2019-04-06T09:19:23.151Z,55.90
2019-04-06T09:20:23.127Z,58.10
2019-04-06T09:21:23.106Z,64.20
2019-04-06T09:22:23.106Z,54.90
2019-04-06T09:23:23.083Z,60.10
2019-04-06T09:24:23.100Z,58.30
2019-04-06T09:25:23.085Z,56.40
2019-04-06T09:26:23.132Z,57.80
2019-04-06T09:27:23.044Z,58.20
2019-04-06T09:28:23.117Z,58.50
2019-04-06T09:29:24.590Z,57.20
2019-04-06T09:30:23.018Z,61.30
2019-04-06T09:31:23.001Z,60.10
2019-04-06T09:32:23.199Z,57.70
2019-04-06T09:33:22.992Z,59.80
2019-04-06T09:34:23.139Z,62.80
2019-04-06T09:35:22.956Z,61.10
2019-04-06T09:36:22.958Z,59.40
2019-04-06T09:37:22.936Z,59.20
2019-04-06T09:38:23.148Z,61.50
2019-04-06T09:39:22.921Z,60.00
2019-04-06T09:40:22.893Z,61.50
2019-04-06T09:41:22.894Z,60.40
2019-04-06T09:42:22.873Z,56.20
2019-04-06T09:43:22.874Z,57.70
2019-04-06T09:44:22.900Z,61.20
2019-04-06T09:45:22.848Z,62.20
2019-04-06T09:46:22.829Z,59.60
2019-04-06T09:47:22.817Z,58.00
2019-04-06T09:48:22.808Z,59.50
2019-04-06T09:49:22.826Z,54.80
2019-04-06T09:50:22.802Z,57.10
2019-04-06T09:51:22.789Z,59.30
2019-04-06T09:52:22.772Z,59.00
2019-04-06T09:53:22.765Z,56.80
2019-04-06T09:54:22.750Z,56.40
2019-04-06T09:55:22.821Z,57.80
2019-04-06T09:56:22.718Z,57.40
2019-04-06T09:57:22.713Z,57.10
2019-04-06T09:58:22.713Z,56.70
2019-04-06T09:59:34.256Z,57.00
2019-04-06T10:00:22.681Z,59.80
2019-04-06T10:01:22.688Z,60.90
2019-04-06T10:02:22.677Z,58.40
2019-04-06T10:03:22.655Z,60.20
2019-04-06T10:04:22.631Z,53.20
2019-04-06T10:05:22.890Z,56.90
2019-04-06T10:06:22.625Z,56.80
2019-04-06T10:07:22.840Z,55.70
2019-04-06T10:08:22.596Z,58.90
2019-04-06T10:09:22.582Z,55.50
2019-04-06T10:10:22.598Z,55.50
2019-04-06T10:11:22.560Z,59.80
2019-04-06T10:12:22.551Z,57.10
2019-04-06T10:13:22.589Z,57.50
2019-04-06T10:14:22.533Z,56.70
2019-04-06T10:15:22.540Z,56.10
2019-04-06T10:16:22.501Z,55.90
2019-04-06T10:17:22.678Z,55.60
2019-04-06T10:18:22.478Z,56.90
2019-04-06T10:19:22.499Z,54.80
2019-04-06T10:20:22.835Z,54.60
2019-04-06T10:21:22.461Z,54.90
2019-04-06T10:22:22.436Z,56.30
2019-04-06T10:23:22.534Z,57.60
2019-04-06T10:24:22.427Z,60.60
2019-04-06T10:25:22.445Z,56.60
2019-04-06T10:26:22.396Z,53.40
2019-04-06T10:27:22.391Z,55.90
2019-04-06T10:28:22.377Z,56.00
2019-04-06T10:29:22.594Z,56.20
2019-04-06T10:30:22.361Z,60.60
2019-04-06T10:31:22.346Z,55.60
2019-04-06T10:32:22.340Z,56.40
2019-04-06T10:33:22.342Z,54.40
2019-04-06T10:34:22.322Z,56.00
2019-04-06T10:35:22.320Z,54.90
2019-04-06T10:36:22.338Z,54.50
2019-04-06T10:37:22.445Z,55.80
2019-04-06T10:38:22.281Z,54.80
2019-04-06T10:39:22.269Z,52.30
2019-04-06T10:40:22.265Z,54.50
2019-04-06T10:41:22.246Z,55.50
2019-04-06T10:42:22.229Z,51.70
2019-04-06T10:43:22.208Z,50.80
2019-04-06T10:44:22.197Z,50.70
2019-04-06T10:45:22.408Z,51.90
2019-04-06T10:46:22.194Z,50.30
2019-04-06T10:47:22.320Z,50.30
2019-04-06T10:48:22.517Z,53.10
2019-04-06T10:49:22.177Z,47.90
2019-04-06T10:50:22.129Z,51.70
2019-04-06T10:51:22.129Z,51.20
2019-04-06T10:52:22.123Z,50.50
2019-04-06T10:53:22.103Z,52.10
2019-04-06T10:54:22.092Z,52.10
2019-04-06T10:55:22.086Z,52.20
2019-04-06T10:56:22.109Z,51.20
2019-04-06T10:57:22.069Z,50.80
2019-04-06T10:58:22.199Z,50.90
2019-04-06T10:59:22.040Z,52.20
2019-04-06T11:00:22.089Z,51.90
2019-04-06T11:01:22.046Z,51.20
2019-04-06T11:02:22.022Z,49.80
2019-04-06T11:03:21.990Z,52.30
2019-04-06T11:04:21.983Z,52.00
2019-04-06T11:05:21.969Z,51.20
2019-04-06T11:06:21.982Z,49.90
2019-04-06T11:07:22.132Z,50.50
2019-04-06T11:08:22.204Z,49.70
2019-04-06T11:10:31.208Z,47.20
2019-04-06T11:11:32.122Z,49.60
2019-04-06T11:12:32.094Z,50.00
2019-04-06T11:13:32.091Z,50.40
2019-04-06T11:14:32.177Z,48.60
2019-04-06T11:15:32.075Z,50.20
2019-04-06T11:16:32.066Z,45.40
2019-04-06T11:17:32.046Z,49.70
2019-04-06T11:18:32.027Z,48.00
2019-04-06T11:19:32.024Z,47.50
2019-04-06T11:20:32.050Z,45.80
2019-04-06T11:21:32.025Z,49.10
2019-04-06T11:22:32.261Z,50.70
2019-04-06T11:23:32.087Z,47.70
2019-04-06T11:24:31.965Z,49.00
2019-04-06T11:25:32.089Z,46.70
2019-04-06T11:26:31.986Z,48.90
2019-04-06T11:27:32.227Z,50.00
2019-04-06T11:28:31.925Z,48.00
2019-04-06T11:29:31.904Z,49.00
2019-04-06T11:30:31.899Z,50.10
2019-04-06T11:31:32.070Z,47.00
2019-04-06T11:32:31.951Z,47.70
2019-04-06T11:33:32.237Z,47.40
2019-04-06T11:34:31.844Z,45.90
2019-04-06T11:35:31.840Z,46.00
2019-04-06T11:36:31.832Z,45.20
2019-04-06T11:37:31.841Z,45.50
2019-04-06T11:38:31.809Z,44.90
2019-04-06T11:39:31.817Z,45.20
2019-04-06T11:40:31.784Z,42.30
2019-04-06T11:41:32.281Z,44.20
2019-04-06T11:42:31.794Z,41.50
2019-04-06T11:43:31.845Z,45.40
2019-04-06T11:44:31.751Z,41.90
2019-04-06T11:45:31.734Z,43.60
2019-04-06T11:46:32.296Z,44.00
2019-04-06T11:47:32.057Z,44.20
2019-04-06T11:48:31.729Z,43.50
2019-04-06T11:49:31.692Z,44.40
2019-04-06T11:50:31.683Z,43.80
2019-04-06T11:51:31.937Z,41.70
2019-04-06T11:52:31.669Z,39.70
2019-04-06T11:53:31.974Z,37.80
2019-04-06T11:54:31.966Z,38.50
2019-04-06T11:55:31.838Z,39.00
2019-04-06T11:56:31.610Z,39.30
2019-04-06T11:57:31.595Z,38.70
2019-04-06T11:58:31.615Z,39.70
2019-04-06T11:59:31.600Z,39.40
2019-04-06T12:00:31.568Z,38.90
2019-04-06T12:01:31.550Z,38.40
2019-04-06T12:02:31.546Z,38.50
2019-04-06T12:03:31.558Z,37.30
2019-04-06T12:04:31.527Z,38.80
2019-04-06T12:05:31.565Z,33.90
2019-04-06T12:06:31.502Z,34.10
2019-04-06T12:07:31.679Z,35.40
2019-04-06T12:08:31.506Z,35.80
2019-04-06T12:09:31.539Z,36.70
2019-04-06T12:10:31.472Z,36.40
2019-04-06T12:11:31.715Z,37.60
2019-04-06T12:12:31.538Z,37.30
2019-04-06T12:13:31.454Z,36.20
2019-04-06T12:14:31.415Z,35.60
2019-04-06T12:15:31.410Z,37.70
2019-04-06T12:16:31.422Z,35.60
2019-04-06T12:17:31.383Z,34.00
2019-04-06T12:18:31.580Z,35.30
2019-04-06T12:19:31.368Z,35.50
2019-04-06T12:20:31.364Z,34.60
2019-04-06T12:21:31.341Z,35.80
2019-04-06T12:22:31.331Z,34.90
2019-04-06T12:23:33.219Z,33.50
2019-04-06T12:24:31.299Z,35.00
2019-04-06T12:25:31.437Z,34.60
2019-04-06T12:26:31.287Z,33.20
2019-04-06T12:27:31.282Z,34.10
2019-04-06T12:28:31.278Z,33.70
2019-04-06T12:29:31.264Z,34.30
2019-04-06T12:30:37.237Z,35.20
2019-04-06T12:31:31.242Z,34.70
2019-04-06T12:32:31.214Z,35.00
2019-04-06T12:33:31.224Z,34.70
2019-04-06T12:34:31.472Z,34.90
2019-04-06T12:35:31.193Z,34.90
2019-04-06T12:36:31.175Z,36.90
2019-04-06T12:37:31.875Z,35.50
2019-04-06T12:38:31.195Z,36.20
2019-04-06T12:39:31.154Z,33.90
2019-04-06T12:40:31.163Z,34.00
2019-04-06T12:41:31.114Z,33.90
2019-04-06T12:42:31.118Z,35.00
2019-04-06T12:43:32.005Z,33.30
2019-04-06T12:44:31.113Z,32.80
2019-04-06T12:45:31.079Z,33.60
2019-04-06T12:46:31.075Z,32.00
2019-04-06T12:47:31.149Z,33.20